Time;durP1;ratioP1;P1;durP2;ratioP2;P2;SDS_P1;SDS_P2;PMS_P1;PMS_P2;Temp;Humidity;BMP_temperature;BMP_pressure;BME280_temperature;BME280_humidity;BME280_pressure;Samples;Min_cycle;Max_cycle;Signal;HPM_P1;HPM_P2
2024/03/30 00:01:31;;;;;;;14.00;9.10;;;10.00;99.90;;;;;;5036576;28;20216;-76
2024/03/30 00:03:57;;;;;;;12.17;8.80;;;10.00;99.90;;;;;;5022704;28;20455;-77
2024/03/30 00:06:24;;;;;;;11.53;9.00;;;10.00;99.90;;;;;;5035225;28;20192;-76
2024/03/30 00:08:50;;;;;;;19.60;11.37;;;10.00;99.90;;;;;;5038748;28;20204;-76
2024/03/30 00:11:16;;;;;;;11.40;9.53;;;10.00;99.90;;;;;;5034500;28;20212;-76
2024/03/30 00:13:42;;;;;;;12.43;9.47;;;10.00;99.90;;;;;;5037049;28;20197;-76
2024/03/30 00:16:11;;;;;;;12.53;9.77;;;9.90;99.90;;;;;;5047333;28;20200;-76
2024/03/30 00:18:38;;;;;;;11.67;9.40;;;9.80;99.90;;;;;;5018712;28;20291;-77
2024/03/30 00:21:05;;;;;;;14.00;9.73;;;9.80;99.90;;;;;;5046803;28;20587;-76
2024/03/30 00:23:31;;;;;;;13.50;9.67;;;9.70;99.90;;;;;;5035644;28;20596;-76
2024/03/30 00:25:58;;;;;;;14.27;7.23;;;9.70;99.90;;;;;;5040223;28;20542;-76
2024/03/30 00:28:24;;;;;;;14.00;10.10;;;9.70;99.90;;;;;;5045570;28;20663;-76
2024/03/30 00:30:51;;;;;;;10.40;7.37;;;9.60;99.90;;;;;;5039683;28;20291;-76
2024/03/30 00:33:18;;;;;;;11.67;10.67;;;9.60;99.90;;;;;;5033679;28;20609;-76
2024/03/30 00:35:46;;;;;;;11.47;9.70;;;9.60;99.90;;;;;;5043575;28;20298;-76
2024/03/30 00:38:13;;;;;;;11.37;10.10;;;9.60;99.90;;;;;;5050659;28;20188;-76
2024/03/30 00:40:40;;;;;;;9.73;8.77;;;9.50;99.90;;;;;;5018122;28;20605;-76
2024/03/30 00:43:07;;;;;;;14.77;7.00;;;9.50;99.90;;;;;;5021221;28;20208;-76
2024/03/30 00:45:37;;;;;;;12.63;8.90;;;9.50;99.90;;;;;;5024053;28;20278;-76
2024/03/30 00:48:04;;;;;;;15.53;7.27;;;9.50;99.90;;;;;;5044697;28;20222;-76
2024/03/30 00:50:32;;;;;;;13.10;10.30;;;9.50;99.90;;;;;;5023643;28;20667;-76
2024/03/30 00:52:59;;;;;;;16.27;10.23;;;9.50;99.90;;;;;;5042589;28;20222;-76
2024/03/30 00:55:26;;;;;;;11.33;8.60;;;9.40;99.90;;;;;;5037651;28;20188;-76
2024/03/30 00:57:52;;;;;;;11.20;6.60;;;9.40;99.90;;;;;;5034447;28;20222;-76
2024/03/30 01:00:19;;;;;;;14.23;8.23;;;9.40;99.90;;;;;;5035396;28;20192;-76
2024/03/30 01:02:45;;;;;;;12.40;5.30;;;9.40;99.90;;;;;;5041964;28;20750;-76
2024/03/30 01:05:13;;;;;;;19.07;9.17;;;9.40;99.90;;;;;;5031126;28;20290;-76
2024/03/30 01:07:40;;;;;;;17.97;10.17;;;9.50;99.90;;;;;;5032831;28;20204;-76
2024/03/30 01:10:10;;;;;;;36.70;12.10;;;9.50;99.90;;;;;;5014374;28;20571;-76
2024/03/30 01:12:36;;;;;;;38.70;12.00;;;9.80;99.90;;;;;;5038605;28;20229;-76
2024/03/30 01:15:04;;;;;;;36.00;8.00;;;10.30;99.90;;;;;;5015887;28;20293;-76
2024/03/30 01:17:32;;;;;;;43.63;14.60;;;10.70;99.90;;;;;;5036959;28;20303;-77
2024/03/30 01:19:59;;;;;;;53.87;14.50;;;11.20;99.90;;;;;;5033626;28;20255;-76
2024/03/30 01:22:25;;;;;;;45.33;12.73;;;11.70;99.90;;;;;;5036408;28;20241;-76
2024/03/30 01:24:54;;;;;;;53.37;12.77;;;11.90;99.90;;;;;;5027564;28;20636;-76
2024/03/30 01:27:23;;;;;;;36.17;12.73;;;12.30;99.90;;;;;;5042230;28;20194;-76
2024/03/30 01:29:51;;;;;;;33.47;12.00;;;12.50;99.90;;;;;;5040655;28;20276;-76
2024/03/30 01:32:17;;;;;;;49.50;14.43;;;12.70;99.90;;;;;;5051010;28;20273;-77
2024/03/30 01:34:45;;;;;;;50.87;13.47;;;12.90;99.90;;;;;;5024034;28;20690;-76
2024/03/30 01:37:11;;;;;;;57.50;15.40;;;13.00;99.90;;;;;;5051433;28;20961;-76
2024/03/30 01:39:38;;;;;;;58.60;11.73;;;13.20;99.90;;;;;;5023483;28;20210;-76
2024/03/30 01:42:05;;;;;;;42.77;9.67;;;13.50;99.90;;;;;;5039321;28;20745;-77
2024/03/30 01:44:31;;;;;;;33.77;8.60;;;13.60;99.90;;;;;;5021722;28;20200;-77
2024/03/30 01:46:57;;;;;;;45.57;11.03;;;13.60;99.90;;;;;;5037494;28;20198;-77
2024/03/30 01:49:24;;;;;;;49.30;10.27;;;13.70;99.90;;;;;;5024701;28;20188;-77
2024/03/30 01:51:50;;;;;;;36.47;8.10;;;13.70;99.90;;;;;;5050831;28;20249;-77
2024/03/30 01:54:21;;;;;;;35.07;10.20;;;13.70;99.90;;;;;;5041912;28;20697;-77
2024/03/30 01:56:50;;;;;;;36.07;9.67;;;13.80;99.90;;;;;;5020197;28;20211;-76
2024/03/30 01:59:18;;;;;;;42.37;11.13;;;13.90;99.90;;;;;;5041222;28;20198;-77
2024/03/30 02:01:46;;;;;;;59.30;10.70;;;13.90;99.90;;;;;;5020588;28;20228;-77
2024/03/30 02:04:14;;;;;;;43.80;12.80;;;14.00;99.90;;;;;;5016412;28;20201;-77
2024/03/30 02:06:41;;;;;;;41.47;13.30;;;14.00;99.90;;;;;;5037171;28;20194;-76
2024/03/30 02:09:10;;;;;;;41.93;12.60;;;14.10;99.90;;;;;;5052191;28;20255;-77
2024/03/30 02:11:38;;;;;;;51.57;13.83;;;14.10;99.90;;;;;;5035043;28;20239;-77
2024/03/30 02:14:06;;;;;;;47.90;13.33;;;14.20;99.90;;;;;;5025580;28;20187;-77
2024/03/30 02:16:35;;;;;;;56.07;14.60;;;14.30;99.90;;;;;;5015741;28;20226;-77
2024/03/30 02:19:01;;;;;;;44.87;13.27;;;14.30;99.90;;;;;;5041596;28;20265;-77
2024/03/30 02:21:27;;;;;;;43.93;12.17;;;14.50;99.90;;;;;;5022832;28;20216;-77
2024/03/30 02:23:55;;;;;;;49.77;13.60;;;14.40;99.90;;;;;;5021126;28;20201;-77
2024/03/30 02:26:21;;;;;;;41.43;12.17;;;14.40;99.90;;;;;;5040301;28;20501;-77
2024/03/30 02:28:50;;;;;;;31.63;11.40;;;14.40;99.90;;;;;;5036444;28;20202;-77
2024/03/30 02:31:16;;;;;;;27.93;10.17;;;14.40;99.90;;;;;;5016354;28;20246;-77
2024/03/30 02:33:43;;;;;;;31.17;11.33;;;14.40;99.90;;;;;;5034059;28;20668;-77
2024/03/30 02:36:10;;;;;;;34.87;11.03;;;14.40;99.90;;;;;;5029045;28;20627;-77
2024/03/30 02:38:37;;;;;;;26.10;11.97;;;14.40;99.90;;;;;;5026423;28;20226;-77
2024/03/30 02:41:04;;;;;;;28.73;11.30;;;14.40;99.90;;;;;;5020420;28;20603;-77
2024/03/30 02:43:31;;;;;;;42.23;13.00;;;14.40;99.90;;;;;;5022339;28;20661;-77
2024/03/30 02:45:57;;;;;;;31.47;10.67;;;14.40;99.90;;;;;;5025371;28;20567;-77
2024/03/30 02:48:24;;;;;;;37.20;11.83;;;14.40;99.90;;;;;;5039335;28;20252;-77
2024/03/30 02:50:49;;;;;;;28.70;10.40;;;14.40;99.90;;;;;;5038450;28;20746;-77
2024/03/30 02:53:16;;;;;;;31.57;11.43;;;14.40;99.90;;;;;;5035666;28;20227;-77
2024/03/30 02:55:42;;;;;;;30.97;9.87;;;14.50;99.90;;;;;;5032323;28;20270;-77
2024/03/30 02:58:10;;;;;;;30.83;11.07;;;14.50;99.90;;;;;;5036423;28;20205;-77
2024/03/30 03:00:36;;;;;;;32.77;10.97;;;14.50;99.90;;;;;;5023128;28;20655;-77
2024/03/30 03:03:03;;;;;;;26.17;9.77;;;14.70;99.90;;;;;;5019477;28;20209;-77
2024/03/30 03:05:29;;;;;;;27.50;10.13;;;14.70;99.90;;;;;;5028031;28;20233;-77
2024/03/30 03:07:55;;;;;;;29.83;10.43;;;14.80;99.90;;;;;;5037988;28;20222;-77
2024/03/30 03:10:21;;;;;;;24.57;10.37;;;14.80;99.90;;;;;;5017867;28;20207;-77
2024/03/30 03:12:49;;;;;;;29.43;10.37;;;14.80;99.90;;;;;;5025702;28;20226;-77
2024/03/30 03:15:16;;;;;;;26.77;9.33;;;14.80;99.90;;;;;;5025840;28;20210;-77
2024/03/30 03:17:43;;;;;;;33.77;10.47;;;14.80;99.90;;;;;;5042886;28;20298;-77
2024/03/30 03:20:10;;;;;;;24.07;9.17;;;14.90;99.90;;;;;;5018826;28;20757;-77
2024/03/30 03:22:37;;;;;;;27.20;10.07;;;15.00;99.90;;;;;;5017213;28;20221;-77
2024/03/30 03:25:04;;;;;;;22.50;9.37;;;15.10;99.90;;;;;;5036221;28;20287;-77
2024/03/30 03:27:31;;;;;;;31.77;9.50;;;15.20;99.90;;;;;;5033605;28;20194;-77
2024/03/30 03:29:57;;;;;;;17.57;8.67;;;15.30;99.90;;;;;;5036658;28;20275;-77
2024/03/30 03:32:25;;;;;;;29.43;10.03;;;15.30;99.90;;;;;;5036888;28;20303;-77
2024/03/30 03:34:51;;;;;;;25.03;10.17;;;15.30;99.90;;;;;;5042370;28;20257;-77
2024/03/30 03:37:17;;;;;;;32.87;9.53;;;15.40;99.90;;;;;;5041744;28;20641;-77
2024/03/30 03:39:43;;;;;;;35.27;9.17;;;15.50;99.90;;;;;;5032420;28;20203;-77
2024/03/30 03:42:10;;;;;;;28.80;9.23;;;15.50;99.90;;;;;;5050782;28;20207;-77
2024/03/30 03:44:36;;;;;;;30.73;10.07;;;15.50;99.90;;;;;;5038365;28;20199;-77
2024/03/30 03:47:03;;;;;;;23.43;8.83;;;15.50;99.90;;;;;;5037923;28;20198;-77
2024/03/30 03:49:30;;;;;;;25.20;8.70;;;15.40;99.90;;;;;;5021263;28;20604;-77
2024/03/30 03:51:57;;;;;;;22.10;8.63;;;15.40;99.90;;;;;;5035352;28;20223;-77
2024/03/30 03:54:23;;;;;;;29.47;9.60;;;15.40;99.90;;;;;;5038316;28;20260;-77
2024/03/30 03:56:49;;;;;;;21.20;9.30;;;15.30;99.90;;;;;;5032312;28;20302;-77
2024/03/30 03:59:15;;;;;;;30.47;8.77;;;15.30;99.90;;;;;;5039612;28;20206;-77
2024/03/30 04:01:42;;;;;;;15.70;8.80;;;15.20;99.90;;;;;;5022003;28;20207;-77
2024/03/30 04:04:08;;;;;;;17.63;8.10;;;15.20;99.90;;;;;;5020746;28;20260;-77
2024/03/30 04:06:36;;;;;;;16.17;7.83;;;15.10;99.90;;;;;;5047804;28;20196;-76
2024/03/30 04:09:03;;;;;;;18.37;7.63;;;15.10;99.90;;;;;;5048380;28;20224;-76
2024/03/30 04:11:30;;;;;;;21.67;8.07;;;15.00;99.90;;;;;;5043874;28;20617;-79
2024/03/30 04:13:57;;;;;;;24.63;8.20;;;15.00;99.90;;;;;;5038013;28;20199;-79
2024/03/30 04:16:24;;;;;;;14.00;8.70;;;14.90;99.90;;;;;;5041372;28;20281;-83
2024/03/30 04:18:51;;;;;;;20.87;8.73;;;14.90;99.90;;;;;;5034912;28;20221;-81
2024/03/30 04:21:18;;;;;;;22.47;7.53;;;14.80;99.90;;;;;;5031972;28;20245;-79
2024/03/30 04:23:48;;;;;;;30.03;8.80;;;14.90;99.90;;;;;;5039936;28;20622;-81
2024/03/30 04:26:15;;;;;;;18.33;7.63;;;15.00;99.90;;;;;;5013835;28;20210;-81
2024/03/30 04:28:41;;;;;;;17.37;7.57;;;14.90;99.90;;;;;;5027517;28;20677;-80
2024/03/30 04:31:09;;;;;;;24.50;8.43;;;14.80;99.90;;;;;;5040500;28;20214;-80
2024/03/30 04:33:36;;;;;;;17.10;8.60;;;14.80;99.90;;;;;;5030541;28;20241;-78
2024/03/30 04:36:04;;;;;;;20.20;7.90;;;14.80;99.90;;;;;;5037449;28;20214;-79
2024/03/30 04:38:33;;;;;;;22.40;8.30;;;14.70;99.90;;;;;;5044368;28;20219;-79
2024/03/30 04:41:02;;;;;;;17.10;7.73;;;14.60;99.90;;;;;;5050391;28;20230;-80
2024/03/30 04:43:28;;;;;;;22.23;8.63;;;14.40;99.90;;;;;;5045947;28;20205;-81
2024/03/30 04:45:55;;;;;;;12.37;7.50;;;14.30;99.90;;;;;;5040225;28;20191;-81
2024/03/30 04:48:24;;;;;;;13.90;7.83;;;14.20;99.90;;;;;;5048746;28;20188;-81
2024/03/30 04:50:51;;;;;;;16.07;8.47;;;14.10;99.90;;;;;;5023048;28;20676;-81
2024/03/30 04:53:17;;;;;;;20.57;8.20;;;14.00;99.90;;;;;;5043414;28;20276;-81
2024/03/30 04:55:52;;;;;;;24.07;9.20;;;13.90;99.90;;;;;;5028267;28;20195;-82
2024/03/30 04:58:20;;;;;;;15.13;7.30;;;13.70;99.90;;;;;;5053803;28;20760;-81
2024/03/30 05:00:47;;;;;;;24.73;9.00;;;13.60;99.90;;;;;;5028198;28;20205;-81
2024/03/30 05:03:14;;;;;;;18.13;7.90;;;13.60;99.90;;;;;;5053484;28;20288;-81
2024/03/30 05:05:43;;;;;;;12.87;7.40;;;13.50;99.90;;;;;;5035009;28;20727;-80
2024/03/30 05:08:12;;;;;;;13.57;7.47;;;13.50;99.90;;;;;;5045539;28;20225;-78
2024/03/30 05:10:39;;;;;;;14.40;7.87;;;13.50;99.90;;;;;;5028277;28;20193;-78
2024/03/30 05:13:06;;;;;;;16.23;8.17;;;13.50;99.90;;;;;;5057270;28;20213;-77
2024/03/30 05:15:36;;;;;;;13.80;7.60;;;13.60;99.90;;;;;;5047024;28;20206;-78
2024/03/30 05:18:02;;;;;;;11.63;7.20;;;13.70;99.90;;;;;;5044632;28;20228;-78
2024/03/30 05:20:49;;;;;;;9.70;7.07;;;13.80;99.90;;;;;;5026064;28;20634;-77
2024/03/30 05:23:19;;;;;;;8.77;6.67;;;13.80;99.90;;;;;;5048615;28;20197;-76
2024/03/30 05:25:46;;;;;;;14.50;7.13;;;13.90;99.90;;;;;;5026372;28;20194;-76
2024/03/30 05:28:14;;;;;;;9.27;6.60;;;13.90;99.90;;;;;;5039484;28;20221;-77
2024/03/30 05:30:42;;;;;;;8.27;6.60;;;14.00;99.90;;;;;;5024580;28;20196;-79
2024/03/30 05:33:08;;;;;;;9.77;6.87;;;14.00;99.90;;;;;;5038422;28;20266;-79
2024/03/30 05:35:35;;;;;;;8.53;7.13;;;14.10;99.90;;;;;;5041497;28;20285;-79
2024/03/30 05:38:01;;;;;;;9.90;7.67;;;14.20;99.90;;;;;;5041953;28;20253;-79
2024/03/30 05:40:31;;;;;;;13.60;7.93;;;14.30;99.90;;;;;;5038856;28;20233;-78
2024/03/30 05:42:58;;;;;;;18.00;7.97;;;14.40;99.90;;;;;;5041281;28;20196;-79
2024/03/30 05:45:25;;;;;;;13.47;7.67;;;14.50;99.90;;;;;;5020237;28;20241;-78
2024/03/30 05:47:52;;;;;;;15.93;8.13;;;14.50;99.90;;;;;;5030826;28;20284;-81
2024/03/30 05:50:19;;;;;;;12.87;3.70;;;14.60;99.90;;;;;;5045928;28;20194;-80
2024/03/30 05:52:45;;;;;;;9.60;3.57;;;14.70;99.90;;;;;;5030942;28;20251;-81
2024/03/30 05:55:12;;;;;;;10.87;3.63;;;14.80;99.90;;;;;;5027367;28;20241;-79
2024/03/30 05:57:39;;;;;;;13.17;4.07;;;15.00;99.90;;;;;;5023975;28;20253;-79
2024/03/30 06:00:07;;;;;;;14.20;4.23;;;15.20;99.90;;;;;;5043451;28;20232;-79
2024/03/30 06:02:39;;;;;;;14.17;4.20;;;15.40;99.90;;;;;;5048509;28;20304;-84
2024/03/30 06:05:08;;;;;;;10.03;3.93;;;15.50;99.90;;;;;;5028663;28;20207;-82
2024/03/30 06:07:34;;;;;;;18.80;4.60;;;15.80;99.90;;;;;;5026370;28;20226;-80
2024/03/30 06:10:01;;;;;;;15.93;6.50;;;15.90;99.90;;;;;;5024626;28;20224;-80
2024/03/30 06:12:27;;;;;;;16.90;4.63;;;16.20;99.90;;;;;;5042425;28;20712;-80
2024/03/30 06:14:57;;;;;;;29.83;8.90;;;16.40;99.90;;;;;;5019357;28;20204;-80
2024/03/30 06:17:23;;;;;;;16.80;8.33;;;16.50;99.90;;;;;;5021692;28;20238;-80
2024/03/30 06:19:50;;;;;;;16.50;8.20;;;16.60;99.90;;;;;;5032432;28;20283;-80
2024/03/30 06:22:18;;;;;;;16.40;8.67;;;16.80;99.90;;;;;;5021621;28;20219;-79
2024/03/30 06:24:44;;;;;;;32.33;10.37;;;16.80;99.90;;;;;;5042547;28;20652;-79
2024/03/30 06:27:10;;;;;;;18.20;8.60;;;16.90;99.90;;;;;;5051154;28;20225;-80
2024/03/30 06:29:39;;;;;;;16.67;8.70;;;17.00;99.90;;;;;;5027060;28;20203;-79
2024/03/30 06:32:06;;;;;;;18.37;8.23;;;17.00;99.90;;;;;;5021375;28;20231;-80
2024/03/30 06:34:33;;;;;;;19.50;8.57;;;17.00;99.90;;;;;;5026426;28;20658;-80
2024/03/30 06:36:59;;;;;;;16.77;7.73;;;17.00;99.90;;;;;;5045776;28;20245;-80
2024/03/30 06:43:40;;;;;;;15.93;7.77;;;17.10;99.90;;;;;;5054093;28;20196;-78
2024/03/30 06:44:58;;;;;;;22.93;8.93;;;17.10;99.90;;;;;;5048576;28;20244;-79
2024/03/30 06:47:25;;;;;;;26.00;8.80;;;17.00;99.90;;;;;;5049338;28;20194;-80
2024/03/30 06:49:52;;;;;;;18.33;8.80;;;16.80;99.90;;;;;;5023796;28;20234;-80
2024/03/30 06:52:19;;;;;;;13.27;7.80;;;16.70;99.90;;;;;;5020264;28;20224;-80
2024/03/30 06:54:46;;;;;;;14.03;8.53;;;16.60;99.90;;;;;;5040304;28;20191;-77
2024/03/30 06:57:13;;;;;;;16.83;8.30;;;16.50;99.90;;;;;;5028630;28;20196;-79
2024/03/30 06:59:38;;;;;;;19.20;8.60;;;16.40;99.90;;;;;;5040186;28;20206;-78
2024/03/30 07:02:05;;;;;;;21.17;9.40;;;16.50;99.90;;;;;;5048092;28;20208;-78
2024/03/30 07:04:31;;;;;;;17.57;9.53;;;16.60;99.90;;;;;;5044260;28;20206;-78
2024/03/30 07:06:58;;;;;;;23.47;9.50;;;16.70;99.90;;;;;;5033410;28;20185;-78
2024/03/30 07:09:24;;;;;;;20.87;8.90;;;16.90;99.90;;;;;;5029693;28;20199;-79
2024/03/30 07:11:52;;;;;;;20.40;8.47;;;17.10;99.90;;;;;;5025451;28;20225;-80
2024/03/30 07:14:17;;;;;;;23.07;9.53;;;17.30;99.90;;;;;;5040647;28;20259;-77
2024/03/30 07:16:44;;;;;;;20.13;9.30;;;17.40;99.90;;;;;;5027882;28;20205;-77
2024/03/30 07:19:10;;;;;;;20.03;8.40;;;17.60;99.90;;;;;;5039783;28;20661;-77
2024/03/30 07:21:37;;;;;;;19.37;8.90;;;17.70;99.90;;;;;;5035647;28;20299;-78
2024/03/30 07:24:03;;;;;;;40.20;10.80;;;17.80;99.90;;;;;;5031671;28;20293;-77
2024/03/30 07:26:30;;;;;;;43.57;11.23;;;17.70;99.90;;;;;;5043713;28;20288;-77
2024/03/30 07:28:57;;;;;;;34.93;10.80;;;17.70;99.90;;;;;;5020791;28;20221;-78
2024/03/30 07:31:25;;;;;;;33.07;10.87;;;17.60;99.90;;;;;;5042018;28;20222;-77
2024/03/30 07:33:51;;;;;;;28.03;10.57;;;17.50;99.90;;;;;;5017154;28;20243;-78
2024/03/30 07:36:18;;;;;;;35.70;11.90;;;17.40;99.90;;;;;;5042416;28;20192;-77
2024/03/30 07:38:45;;;;;;;41.17;11.10;;;17.40;99.90;;;;;;5015746;28;20280;-77
2024/03/30 07:41:11;;;;;;;32.90;10.97;;;17.40;99.90;;;;;;5022165;28;20214;-77
2024/03/30 07:43:37;;;;;;;42.63;10.83;;;17.30;99.90;;;;;;5017545;28;20202;-77
2024/03/30 07:46:06;;;;;;;22.10;8.93;;;17.30;99.90;;;;;;5041138;28;20741;-77
2024/03/30 07:48:31;;;;;;;38.73;11.20;;;17.30;99.90;;;;;;5025659;28;20207;-77
2024/03/30 07:50:58;;;;;;;31.40;10.83;;;17.30;99.80;;;;;;5035373;28;20219;-77
2024/03/30 07:53:24;;;;;;;36.57;10.23;;;17.30;99.90;;;;;;5021946;28;20206;-83
2024/03/30 07:55:52;;;;;;;30.93;10.50;;;17.30;99.90;;;;;;5033369;28;20583;-79
2024/03/30 07:58:17;;;;;;;23.33;9.87;;;17.30;99.90;;;;;;5031109;28;20214;-79
2024/03/30 08:00:44;;;;;;;25.77;9.90;;;17.30;99.40;;;;;;5025924;28;20616;-80
2024/03/30 08:03:11;;;;;;;28.07;9.83;;;17.30;99.50;;;;;;5029161;28;20194;-79
2024/03/30 08:05:38;;;;;;;32.60;10.93;;;17.40;99.40;;;;;;5022616;28;20200;-79
2024/03/30 08:08:05;;;;;;;19.40;9.03;;;17.40;99.60;;;;;;5043971;28;20206;-79
2024/03/30 08:10:32;;;;;;;20.27;8.95;;;17.40;99.80;;;;;;5029526;28;20447;-79
2024/03/30 08:12:58;;;;;;;21.07;9.03;;;17.40;99.40;;;;;;5025360;28;20718;-80
2024/03/30 08:15:24;;;;;;;22.80;9.60;;;17.50;99.20;;;;;;5033520;28;20209;-78
2024/03/30 08:17:50;;;;;;;16.37;7.87;;;17.50;99.30;;;;;;5030275;28;20325;-77
2024/03/30 08:20:18;;;;;;;20.97;8.43;;;17.50;99.00;;;;;;5049627;28;20661;-80
2024/03/30 08:22:46;;;;;;;18.97;8.37;;;17.50;99.20;;;;;;5029135;28;20250;-77
2024/03/30 08:25:12;;;;;;;17.17;7.73;;;17.50;99.50;;;;;;5016200;28;20692;-77
2024/03/30 08:27:38;;;;;;;17.27;8.00;;;17.40;99.80;;;;;;5018199;28;20204;-77
2024/03/30 08:30:06;;;;;;;18.90;8.70;;;17.40;99.90;;;;;;5032209;28;20688;-79
2024/03/30 08:32:32;;;;;;;23.37;8.67;;;17.30;99.90;;;;;;5039344;28;20272;-77
2024/03/30 08:34:59;;;;;;;24.63;9.93;;;17.30;99.90;;;;;;5021623;28;20197;-77
2024/03/30 08:37:26;;;;;;;15.27;8.33;;;17.20;99.90;;;;;;5037208;28;20204;-77
2024/03/30 08:39:52;;;;;;;19.53;8.17;;;17.20;99.90;;;;;;5039439;28;20204;-77
2024/03/30 08:42:18;;;;;;;14.37;7.23;;;17.20;99.90;;;;;;5034883;28;20227;-77
2024/03/30 08:44:45;;;;;;;11.53;7.30;;;17.20;99.90;;;;;;5022184;28;20206;-77
2024/03/30 08:47:11;;;;;;;14.97;8.33;;;17.20;99.90;;;;;;5032078;28;20521;-77
2024/03/30 08:49:38;;;;;;;10.83;7.10;;;17.20;99.90;;;;;;5037152;28;20188;-77
2024/03/30 08:52:04;;;;;;;9.27;7.20;;;17.10;99.90;;;;;;5013930;28;20227;-77
2024/03/30 08:54:32;;;;;;;14.40;9.00;;;17.10;99.90;;;;;;5019431;28;20211;-77
2024/03/30 08:56:58;;;;;;;16.60;8.93;;;17.00;99.90;;;;;;5020899;28;20328;-77
2024/03/30 08:59:25;;;;;;;18.43;9.27;;;16.90;99.90;;;;;;5035194;28;20240;-76
2024/03/30 09:01:50;;;;;;;26.13;9.90;;;16.80;99.90;;;;;;5037928;28;20230;-77
2024/03/30 09:04:19;;;;;;;18.77;8.93;;;16.70;99.90;;;;;;5014797;28;20300;-77
2024/03/30 09:06:44;;;;;;;19.93;9.67;;;16.60;99.90;;;;;;5039436;28;20195;-77
2024/03/30 09:09:11;;;;;;;14.30;7.93;;;16.50;99.90;;;;;;5031105;28;20539;-77
2024/03/30 09:11:39;;;;;;;15.43;8.13;;;16.50;99.90;;;;;;5020537;28;20672;-76
2024/03/30 09:14:05;;;;;;;15.73;8.43;;;16.50;99.90;;;;;;5020414;28;20200;-77
2024/03/30 09:16:31;;;;;;;13.93;7.80;;;16.50;99.90;;;;;;5018370;28;20278;-77
2024/03/30 09:18:58;;;;;;;17.20;8.43;;;16.60;99.90;;;;;;5038499;28;20720;-77
2024/03/30 09:21:24;;;;;;;11.30;7.77;;;16.60;99.90;;;;;;5033841;28;20738;-77
2024/03/30 09:23:51;;;;;;;18.23;8.07;;;16.70;99.90;;;;;;5049534;28;20194;-79
2024/03/30 09:26:16;;;;;;;15.27;8.60;;;16.70;99.90;;;;;;5049483;28;20248;-78
2024/03/30 09:28:45;;;;;;;16.90;8.37;;;16.70;99.90;;;;;;5031476;28;20195;-78
2024/03/30 09:31:10;;;;;;;22.97;7.70;;;16.70;99.90;;;;;;5041675;28;20211;-78
2024/03/30 09:33:37;;;;;;;17.50;8.47;;;16.60;99.90;;;;;;5042669;28;20199;-78
2024/03/30 09:36:08;;;;;;;18.00;7.90;;;16.60;99.90;;;;;;5043371;28;20258;-78
2024/03/30 09:38:35;;;;;;;13.40;7.97;;;16.70;99.90;;;;;;5022457;28;20219;-77
2024/03/30 09:41:03;;;;;;;22.20;8.77;;;16.70;99.90;;;;;;5031242;28;20250;-79
2024/03/30 09:43:30;;;;;;;14.03;8.30;;;16.70;99.90;;;;;;5023612;28;20230;-79
2024/03/30 09:45:58;;;;;;;12.07;8.33;;;16.80;99.90;;;;;;5024192;28;20432;-77
2024/03/30 09:48:27;;;;;;;11.87;7.97;;;16.90;99.90;;;;;;5029405;28;20921;-77
2024/03/30 09:50:54;;;;;;;21.27;10.57;;;16.90;99.90;;;;;;5044398;28;20219;-76
2024/03/30 09:53:24;;;;;;;23.37;10.93;;;16.90;99.90;;;;;;5042784;28;20225;-76
2024/03/30 09:55:53;;;;;;;25.43;9.73;;;17.00;99.90;;;;;;5027753;28;20203;-76
2024/03/30 09:58:20;;;;;;;16.73;9.13;;;17.00;99.90;;;;;;5035962;28;20223;-76
2024/03/30 10:00:47;;;;;;;27.87;10.33;;;17.00;99.90;;;;;;5045092;28;20202;-76
2024/03/30 10:03:15;;;;;;;17.80;8.57;;;17.00;99.90;;;;;;5047948;28;20198;-76
2024/03/30 10:05:46;;;;;;;18.07;8.57;;;17.00;99.90;;;;;;5050344;28;20199;-76
2024/03/30 10:08:17;;;;;;;15.87;8.17;;;17.00;99.90;;;;;;5045992;28;20557;-76
2024/03/30 10:10:47;;;;;;;17.70;9.17;;;17.00;99.90;;;;;;5023143;28;20291;-75
2024/03/30 10:13:26;;;;;;;13.77;7.47;;;17.10;99.90;;;;;;5042321;28;20242;-76
2024/03/30 10:15:52;;;;;;;14.87;7.97;;;17.20;99.90;;;;;;5042233;28;20741;-77
2024/03/30 10:18:20;;;;;;;17.30;7.63;;;17.20;99.90;;;;;;5035053;28;20214;-76
2024/03/30 10:20:47;;;;;;;10.37;7.53;;;17.30;99.90;;;;;;5039673;28;20268;-77
2024/03/30 10:23:14;;;;;;;27.40;9.17;;;17.40;99.90;;;;;;5024295;28;20206;-79
2024/03/30 10:25:50;;;;;;;20.67;8.30;;;17.40;99.90;;;;;;5037857;28;20209;-77
2024/03/30 10:28:18;;;;;;;35.00;9.80;;;17.30;99.90;;;;;;5023513;28;20700;-77
2024/03/30 10:30:45;;;;;;;23.00;9.67;;;17.10;99.90;;;;;;5054719;28;20719;-77
2024/03/30 10:33:14;;;;;;;21.20;10.03;;;16.90;99.90;;;;;;5048585;28;20554;-76
2024/03/30 10:35:43;;;;;;;16.20;8.70;;;16.80;99.90;;;;;;5040583;28;20197;-77
2024/03/30 10:38:12;;;;;;;19.53;9.70;;;16.70;99.90;;;;;;5045254;28;20210;-77
2024/03/30 10:40:38;;;;;;;19.97;8.90;;;16.70;99.90;;;;;;5054343;28;20250;-77
2024/03/30 10:43:05;;;;;;;14.40;8.40;;;16.60;99.90;;;;;;5035746;28;20565;-76
2024/03/30 10:45:31;;;;;;;20.13;8.90;;;16.70;99.90;;;;;;5024480;28;20211;-77
2024/03/30 10:47:58;;;;;;;15.93;8.50;;;16.70;99.90;;;;;;5019771;28;20193;-78
2024/03/30 10:50:25;;;;;;;19.83;9.37;;;16.70;99.90;;;;;;5040642;28;20196;-76
2024/03/30 10:52:54;;;;;;;21.30;9.10;;;16.60;99.90;;;;;;5038186;28;20223;-80
2024/03/30 10:55:21;;;;;;;19.00;9.23;;;16.50;99.90;;;;;;5050600;28;20199;-77
2024/03/30 10:57:48;;;;;;;21.93;9.20;;;16.40;99.90;;;;;;5022960;28;20196;-80
2024/03/30 11:00:14;;;;;;;14.77;10.07;;;16.40;99.90;;;;;;5025328;28;20813;-80
2024/03/30 11:02:41;;;;;;;17.77;8.90;;;16.40;99.90;;;;;;5023833;28;20219;-77
2024/03/30 11:05:07;;;;;;;22.47;8.73;;;16.50;99.90;;;;;;5040728;28;20200;-77
2024/03/30 11:07:38;;;;;;;18.07;9.00;;;16.60;99.90;;;;;;5024974;28;20199;-79
2024/03/30 11:10:06;;;;;;;26.00;10.20;;;16.60;99.90;;;;;;5053178;28;20230;-77
2024/03/30 11:12:34;;;;;;;24.13;9.73;;;16.50;99.90;;;;;;5048180;28;20219;-77
2024/03/30 11:15:00;;;;;;;19.23;9.53;;;16.40;99.90;;;;;;5019588;28;20204;-77
2024/03/30 11:17:31;;;;;;;20.27;9.43;;;16.40;99.90;;;;;;5047989;28;20184;-77
2024/03/30 11:20:08;;;;;;;20.97;9.33;;;16.40;99.90;;;;;;5026956;28;20214;-78
2024/03/30 11:22:44;;;;;;;16.57;8.60;;;16.30;99.90;;;;;;5041840;28;20220;-77
2024/03/30 11:25:13;;;;;;;17.60;9.03;;;16.40;99.90;;;;;;5031341;28;20756;-77
2024/03/30 11:27:47;;;;;;;25.17;10.13;;;16.50;99.90;;;;;;5036970;28;20196;-78
2024/03/30 11:30:28;;;;;;;24.37;9.67;;;16.50;99.90;;;;;;5024018;28;20201;-78
2024/03/30 11:33:07;;;;;;;16.20;9.10;;;16.40;99.90;;;;;;5022181;28;20221;-78
2024/03/30 11:35:39;;;;;;;21.37;9.83;;;16.50;99.90;;;;;;5035895;28;20201;-78
2024/03/30 11:38:07;;;;;;;16.93;9.30;;;16.60;99.90;;;;;;5020992;28;20671;-78
2024/03/30 11:40:37;;;;;;;20.00;9.27;;;16.60;99.90;;;;;;5042032;28;20223;-77
2024/03/30 11:43:15;;;;;;;23.70;10.07;;;16.40;99.90;;;;;;5036974;28;20204;-79
2024/03/30 11:45:44;;;;;;;20.13;9.80;;;16.30;99.90;;;;;;5043261;28;20216;-80
2024/03/30 11:48:12;;;;;;;24.00;9.57;;;16.20;99.90;;;;;;5017362;28;20188;-82
2024/03/30 11:50:39;;;;;;;17.30;8.83;;;16.10;99.90;;;;;;5042662;28;20208;-81
2024/03/30 11:53:15;;;;;;;20.80;9.37;;;16.10;99.90;;;;;;5028794;28;20200;-81
2024/03/30 11:55:43;;;;;;;15.57;8.17;;;16.10;99.90;;;;;;5025937;28;20296;-80
2024/03/30 11:58:18;;;;;;;14.50;8.00;;;16.20;99.90;;;;;;5043170;28;20599;-82
2024/03/30 12:00:49;;;;;;;14.53;9.17;;;16.30;99.90;;;;;;5021961;28;20222;-83
2024/03/30 12:03:16;;;;;;;10.10;7.60;;;16.40;99.90;;;;;;5039712;28;20211;-81
2024/03/30 12:05:45;;;;;;;12.83;8.13;;;16.50;99.90;;;;;;5016505;28;20200;-79
2024/03/30 12:08:13;;;;;;;12.70;7.90;;;16.60;99.90;;;;;;5038052;28;20973;-79
2024/03/30 12:10:54;;;;;;;14.53;8.20;;;16.70;99.90;;;;;;5028733;28;20263;-78
2024/03/30 12:13:22;;;;;;;13.83;8.33;;;16.70;99.90;;;;;;5048411;28;20288;-78
2024/03/30 12:15:49;;;;;;;14.23;8.03;;;16.70;99.90;;;;;;5021966;28;20244;-78
2024/03/30 12:18:16;;;;;;;13.17;8.20;;;16.70;99.90;;;;;;5036162;28;20205;-78
2024/03/30 12:20:42;;;;;;;13.20;8.10;;;16.80;99.90;;;;;;5038516;28;20203;-78
2024/03/30 12:23:12;;;;;;;15.00;8.40;;;16.80;99.90;;;;;;5029130;28;20842;-81
2024/03/30 12:25:39;;;;;;;10.00;7.13;;;16.80;99.90;;;;;;5034324;28;20269;-82
2024/03/30 12:28:07;;;;;;;8.87;7.23;;;16.90;99.90;;;;;;5018686;28;20630;-82
2024/03/30 12:30:39;;;;;;;12.80;7.87;;;16.90;99.90;;;;;;5022789;28;20200;-78
2024/03/30 12:33:07;;;;;;;11.00;7.70;;;16.90;99.90;;;;;;5024373;28;20193;-79
2024/03/30 12:35:34;;;;;;;11.50;8.33;;;16.90;99.90;;;;;;5018492;28;20614;-79
2024/03/30 12:38:01;;;;;;;10.23;7.87;;;16.90;99.90;;;;;;5042302;28;20204;-79
2024/03/30 12:40:30;;;;;;;11.50;8.00;;;17.00;99.90;;;;;;5034383;28;20226;-79